Time,TemperatureF,DewpointF,PressureIn,WindDirection,WindDirectionDegrees,WindSpeedMPH,WindSpeedGustMPH,Humidity,HourlyPrecipIn,Conditions,Clouds,dailyrainin,SoftwareType,DateUTC
2013-04-21 00:01:00,47.0,42.0,-100.00,North,350,6.0,13.0,82,-99.99,,,-99.99,,2013-04-21 07:01:00,
2013-04-21 01:10:00,46.0,42.0,-100.00,SSW,200,1.0,6.0,85,-99.99,,,-99.99,,2013-04-21 08:10:00,
2013-04-21 02:01:00,46.0,42.0,-100.00,SSW,200,1.0,6.0,85,-99.99,,,-99.99,,2013-04-21 09:01:00,
2013-04-21 02:10:00,46.0,41.0,-100.00,NNW,335,5.0,14.0,82,-99.99,,,-99.99,,2013-04-21 09:10:00,
2013-04-21 03:02:00,46.0,41.0,-100.00,NNW,335,5.0,14.0,82,-99.99,,,-99.99,,2013-04-21 10:02:00,
2013-04-21 03:10:00,45.0,40.0,-100.00,WNW,295,2.0,14.0,82,-99.99,,,-99.99,,2013-04-21 10:10:00,
2013-04-21 04:02:00,45.0,40.0,-100.00,WNW,295,2.0,14.0,82,-99.99,,,-99.99,,2013-04-21 11:02:00,
2013-04-21 04:10:00,45.0,40.0,-100.00,SW,230,7.0,13.0,82,-99.99,,,-99.99,,2013-04-21 11:10:00,
2013-04-21 05:02:00,45.0,40.0,-100.00,SW,230,7.0,13.0,82,-99.99,,,-99.99,,2013-04-21 12:02:00,
2013-04-21 05:10:00,44.0,40.0,-100.00,NW,310,3.0,9.0,85,-99.99,,,-99.99,,2013-04-21 12:10:00,
2013-04-21 06:01:00,44.0,40.0,-100.00,NW,310,3.0,9.0,85,-99.99,,,-99.99,,2013-04-21 13:01:00,
2013-04-21 06:10:00,44.0,39.0,-100.00,SW,225,1.0,3.0,82,-99.99,,,-99.99,,2013-04-21 13:10:00,
2013-04-21 07:01:00,44.0,39.0,-100.00,SW,225,1.0,3.0,82,-99.99,,,-99.99,,2013-04-21 14:01:00,
2013-04-21 07:10:00,45.0,40.0,-100.00,NNE,30,1.0,7.0,82,-99.99,,,-99.99,,2013-04-21 14:10:00,
2013-04-21 08:02:00,45.0,40.0,-100.00,NNE,30,1.0,7.0,82,-99.99,,,-99.99,,2013-04-21 15:02:00,
2013-04-21 08:10:00,45.0,40.0,-100.00,NW,320,1.0,6.0,82,-99.99,,,-99.99,,2013-04-21 15:10:00,
2013-04-21 09:03:00,45.0,40.0,-100.00,NW,320,1.0,6.0,82,-99.99,,,-99.99,,2013-04-21 16:03:00,
2013-04-21 09:10:00,47.0,42.0,-100.00,NNW,330,1.0,5.0,82,-99.99,,,-99.99,,2013-04-21 16:10:00,
2013-04-21 10:02:00,47.0,42.0,-100.00,NNW,330,1.0,5.0,82,-99.99,,,-99.99,,2013-04-21 17:02:00,
2013-04-21 10:10:00,45.0,42.0,-100.00,North,360,1.0,7.0,89,-99.99,,,-99.99,,2013-04-21 17:10:00,
2013-04-21 11:02:00,45.0,42.0,-100.00,North,360,1.0,7.0,89,-99.99,,,-99.99,,2013-04-21 18:02:00,
2013-04-21 11:10:00,45.0,43.0,-100.00,NW,305,1.0,3.0,92,-99.99,,,-99.99,,2013-04-21 18:10:00,
2013-04-21 12:02:00,45.0,43.0,-100.00,NW,305,1.0,3.0,92,-99.99,,,-99.99,,2013-04-21 19:02:00,
2013-04-21 12:10:00,46.0,44.0,-100.00,West,270,1.0,3.0,92,-99.99,,,-99.99,,2013-04-21 19:10:00,
2013-04-21 13:01:00,46.0,44.0,-100.00,West,270,1.0,3.0,92,-99.99,,,-99.99,,2013-04-21 20:01:00,
2013-04-21 13:10:00,46.0,44.0,-100.00,SW,230,6.0,9.0,92,-99.99,,,-99.99,,2013-04-21 20:10:00,
2013-04-21 14:02:00,46.0,44.0,-100.00,SW,230,6.0,9.0,92,-99.99,,,-99.99,,2013-04-21 21:02:00,
2013-04-21 14:10:00,45.0,43.0,-100.00,SSW,210,1.0,3.0,92,-99.99,,,-99.99,,2013-04-21 21:10:00,
2013-04-21 15:02:00,45.0,43.0,-100.00,SSW,210,1.0,3.0,92,-99.99,,,-99.99,,2013-04-21 22:02:00,
2013-04-21 15:10:00,46.0,44.0,-100.00,East,90,1.0,3.0,92,-99.99,,,-99.99,,2013-04-21 22:10:00,
2013-04-21 16:02:00,46.0,44.0,-100.00,East,90,1.0,3.0,92,-99.99,,,-99.99,,2013-04-21 23:02:00,
2013-04-21 16:10:00,47.0,43.0,-100.00,ENE,60,1.0,6.0,85,-99.99,,,-99.99,,2013-04-21 23:10:00,
2013-04-21 17:01:00,47.0,43.0,-100.00,ENE,60,1.0,6.0,85,-99.99,,,-99.99,,2013-04-22 00:01:00,
2013-04-21 17:10:00,49.0,43.0,-100.00,ESE,105,1.0,6.0,79,-99.99,,,-99.99,,2013-04-22 00:10:00,
2013-04-21 18:01:00,49.0,43.0,-100.00,ESE,105,1.0,6.0,79,-99.99,,,-99.99,,2013-04-22 01:01:00,
2013-04-21 18:10:00,47.0,44.0,-100.00,NE,45,1.0,3.0,89,-99.99,,,-99.99,,2013-04-22 01:10:00,
2013-04-21 19:02:00,47.0,44.0,-100.00,NE,45,1.0,3.0,89,-99.99,,,-99.99,,2013-04-22 02:02:00,
2013-04-21 19:10:00,47.0,44.0,-100.00,ESE,110,2.0,5.0,89,-99.99,,,-99.99,,2013-04-22 02:10:00,
2013-04-21 20:02:00,47.0,44.0,-100.00,ESE,110,2.0,5.0,89,-99.99,,,-99.99,,2013-04-22 03:02:00,
2013-04-21 20:10:00,45.0,44.0,-100.00,NE,45,0.0,2.0,96,-99.99,,,-99.99,,2013-04-22 03:10:00,
2013-04-21 21:02:00,45.0,44.0,-100.00,NE,45,0.0,2.0,96,-99.99,,,-99.99,,2013-04-22 04:02:00,
2013-04-21 21:10:00,45.0,44.0,-100.00,NNW,330,0.0,3.0,96,-99.99,,,-99.99,,2013-04-22 04:10:00,
2013-04-21 22:02:00,45.0,44.0,-100.00,NNW,330,0.0,3.0,96,-99.99,,,-99.99,,2013-04-22 05:02:00,
2013-04-21 22:10:00,43.0,42.0,-100.00,East,80,1.0,2.0,96,-99.99,,,-99.99,,2013-04-22 05:10:00,
2013-04-21 23:02:00,43.0,42.0,-100.00,East,80,1.0,2.0,96,-99.99,,,-99.99,,2013-04-22 06:02:00,
2013-04-21 23:10:00,41.0,41.0,-100.00,ESE,115,1.0,5.0,100,-99.99,,,-99.99,,2013-04-22 06:10:00,